Time;durP1;ratioP1;P1;durP2;ratioP2;P2;SDS_P1;SDS_P2;PMS_P1;PMS_P2;Temp;Humidity;BMP_temperature;BMP_pressure;BME280_temperature;BME280_humidity;BME280_pressure;Samples;Min_cycle;Max_cycle;Signal;HPM_P1;HPM_P2
2022/10/05 00:01:38;;;;;;;14.35;8.40;;;;;;;-146.58;100.00;69501.63;4991999;28;20038;-61
2022/10/05 00:04:17;;;;;;;16.10;7.80;;;;;;;-146.58;100.00;69501.63;4992391;28;20055;-62
2022/10/05 00:06:44;;;;;;;;;;;;;;;-146.58;100.00;69501.63;4992265;28;20434;-63
2022/10/05 00:09:19;;;;;;;8.80;7.85;;;;;;;-146.58;100.00;69501.63;4993317;28;19921;-61
2022/10/05 00:11:46;;;;;;;14.07;7.88;;;;;;;-146.58;100.00;69501.63;4991830;28;20030;-60
2022/10/05 00:14:18;;;;;;;14.45;8.32;;;;;;;-146.58;100.00;69501.63;4993039;28;20038;-60
2022/10/05 00:16:44;;;;;;;10.73;8.48;;;;;;;-146.58;100.00;69501.63;4992173;28;20101;-59
2022/10/05 00:19:25;;;;;;;13.73;9.70;;;;;;;-146.58;100.00;69501.63;4992585;28;20134;-60
2022/10/05 00:21:51;;;;;;;9.30;8.25;;;;;;;-146.58;100.00;69501.63;4991901;28;20022;-60
2022/10/05 00:24:19;;;;;;;10.50;9.32;;;;;;;-146.58;100.00;69501.63;4992605;28;20536;-60
2022/10/05 00:26:44;;;;;;;11.52;8.82;;;;;;;-146.58;100.00;69501.63;4991495;28;20033;-59
2022/10/05 00:29:20;;;;;;;10.77;9.15;;;;;;;-146.58;100.00;69501.63;4992711;28;20018;-60
2022/10/05 00:31:45;;;;;;;13.73;10.70;;;;;;;-146.58;100.00;69501.63;4991498;28;20050;-59
2022/10/05 00:34:10;;;;;;;13.95;9.95;;;;;;;-146.58;100.00;69501.63;4992086;28;20030;-59
2022/10/05 00:36:37;;;;;;;13.52;8.60;;;;;;;-146.58;100.00;69501.63;4991419;28;20037;-60
2022/10/05 00:39:03;;;;;;;15.60;10.93;;;;;;;-146.58;100.00;69501.63;4992868;28;20109;-60
2022/10/05 00:41:59;;;;;;;14.68;10.95;;;;;;;-146.58;100.00;69501.63;4992551;28;20045;-60
2022/10/05 00:44:44;;;;;;;14.65;10.50;;;;;;;-146.58;100.00;69501.63;4991132;28;20061;-60
2022/10/05 00:47:29;;;;;;;14.35;9.13;;;;;;;-146.58;100.00;69501.63;4991077;28;20034;-60
2022/10/05 00:49:57;;;;;;;13.02;10.43;;;;;;;-146.58;100.00;69501.63;4992526;28;20084;-60
2022/10/05 00:53:00;;;;;;;12.25;9.77;;;;;;;-146.58;100.00;69501.63;4990819;28;20569;-60
2022/10/05 00:56:06;;;;;;;16.40;9.90;;;;;;;-146.58;100.00;69501.63;4992006;28;20455;-59
2022/10/05 00:59:08;;;;;;;13.82;9.32;;;;;;;-146.58;100.00;69501.63;4991231;28;20069;-59
2022/10/05 01:01:56;;;;;;;17.65;11.77;;;;;;;-146.58;100.00;69501.63;4991155;28;20467;-59
2022/10/05 01:04:48;;;;;;;20.90;10.13;;;;;;;-146.58;100.00;69501.63;4991902;28;20102;-59
2022/10/05 01:07:35;;;;;;;14.55;9.50;;;;;;;-146.58;100.00;69501.63;4990176;28;20064;-60
2022/10/05 01:10:32;;;;;;;12.57;10.18;;;;;;;-146.58;100.00;69501.63;4992178;28;20042;-60
2022/10/05 01:13:17;;;;;;;16.30;10.53;;;;;;;-146.58;100.00;69501.63;4959715;28;20039;-60
2022/10/05 01:16:25;;;;;;;15.23;11.48;;;;;;;-146.58;100.00;69501.63;4971856;28;20030;-58
2022/10/05 01:18:50;;;;;;;14.25;8.82;;;;;;;-146.58;100.00;69501.63;4969687;28;20051;-58
2022/10/05 01:21:18;;;;;;;11.82;10.25;;;;;;;-146.58;100.00;69501.63;4972672;28;20093;-58
2022/10/05 01:24:06;;;;;;;14.53;10.27;;;;;;;-146.58;100.00;69501.63;4971090;28;20130;-58
2022/10/05 01:26:49;;;;;;;11.80;10.52;;;;;;;-146.58;100.00;69501.63;4963227;28;20026;-58
2022/10/05 01:29:23;;;;;;;17.25;11.45;;;;;;;-146.58;100.00;69501.63;4990298;28;20412;-58
2022/10/05 01:31:58;;;;;;;11.50;9.18;;;;;;;-146.58;100.00;69501.63;4990174;28;20513;-58
2022/10/05 01:34:36;;;;;;;13.90;9.75;;;;;;;-146.58;100.00;69501.63;4991297;28;20030;-58
2022/10/05 01:37:37;;;;;;;15.65;12.57;;;;;;;-146.58;100.00;69501.63;4989892;28;20057;-58
2022/10/05 01:40:33;;;;;;;12.32;9.82;;;;;;;-146.58;100.00;69501.63;4991631;28;20027;-58
2022/10/05 01:43:12;;;;;;;27.23;10.68;;;;;;;-146.58;100.00;69501.63;4990658;28;20046;-59
2022/10/05 01:46:06;;;;;;;16.95;10.05;;;;;;;-146.58;100.00;69501.63;4991701;28;20092;-58
2022/10/05 01:48:34;;;;;;;18.75;9.65;;;;;;;-146.58;100.00;69501.63;4986222;28;20068;-59
2022/10/05 01:51:28;;;;;;;10.25;9.02;;;;;;;-146.58;100.00;69501.63;4991693;28;20026;-59
2022/10/05 01:54:25;;;;;;;11.98;9.82;;;;;;;-146.58;100.00;69501.63;4990401;28;20042;-59
2022/10/05 01:57:03;;;;;;;12.80;11.48;;;;;;;-146.58;100.00;69501.63;4977022;28;20035;-59
2022/10/05 01:59:45;;;;;;;16.30;10.77;;;;;;;-146.58;100.00;69501.63;4991443;28;20034;-58
2022/10/05 02:02:22;;;;;;;20.45;12.82;;;;;;;-146.58;100.00;69501.63;4989612;28;20410;-58
2022/10/05 02:04:52;;;;;;;19.83;11.70;;;;;;;-146.58;100.00;69501.63;4991966;28;20080;-58
2022/10/05 02:07:31;;;;;;;15.73;10.90;;;;;;;-146.58;100.00;69501.63;4989510;28;20078;-59
2022/10/05 02:10:03;;;;;;;14.02;11.35;;;;;;;-146.58;100.00;69501.63;4991451;28;20053;-58
2022/10/05 02:12:34;;;;;;;15.27;12.35;;;;;;;-146.58;100.00;69501.63;4989930;28;20555;-58
2022/10/05 02:15:11;;;;;;;36.78;11.88;;;;;;;-146.58;100.00;69501.63;4991511;28;20474;-58
2022/10/05 02:17:49;;;;;;;18.10;11.52;;;;;;;-146.58;100.00;69501.63;4990048;28;20078;-59
2022/10/05 02:20:22;;;;;;;16.67;12.63;;;;;;;-146.58;100.00;69501.63;4991668;28;20038;-58
2022/10/05 02:22:51;;;;;;;23.27;13.00;;;;;;;-146.58;100.00;69501.63;4989566;28;20038;-59
2022/10/05 02:25:38;;;;;;;13.77;11.23;;;;;;;-146.58;100.00;69501.63;4990453;28;20034;-59
2022/10/05 02:28:18;;;;;;;14.75;10.45;;;;;;;-146.58;100.00;69501.63;4979343;28;20053;-59
2022/10/05 02:30:50;;;;;;;14.65;12.52;;;;;;;-146.58;100.00;69501.63;4995364;28;20536;-59
2022/10/05 02:33:28;;;;;;;14.98;12.23;;;;;;;-146.58;100.00;69501.63;4993166;28;20046;-59
2022/10/05 02:35:59;;;;;;;15.05;12.27;;;;;;;-146.58;100.00;69501.63;4995315;28;20089;-59
2022/10/05 02:38:33;;;;;;;17.80;12.70;;;;;;;-146.58;100.00;69501.63;4992898;28;20046;-58
2022/10/05 02:41:13;;;;;;;23.50;11.95;;;;;;;-146.58;100.00;69501.63;4994815;28;20731;-59
2022/10/05 02:44:09;;;;;;;18.15;11.85;;;;;;;-146.58;100.00;69501.63;4993275;28;20517;-59
2022/10/05 02:46:44;;;;;;;19.08;12.88;;;;;;;-146.58;100.00;69501.63;4993293;28;20030;-58
2022/10/05 02:49:09;;;;;;;14.40;10.98;;;;;;;-146.58;100.00;69501.63;4994627;28;20359;-60
2022/10/05 02:51:59;;;;;;;15.52;12.00;;;;;;;-146.58;100.00;69501.63;4993542;28;20038;-60
2022/10/05 02:54:43;;;;;;;16.13;11.50;;;;;;;-146.58;100.00;69501.63;4991589;28;20030;-60
2022/10/05 02:57:25;;;;;;;19.25;10.90;;;;;;;-146.58;100.00;69501.63;4993109;28;20045;-59
2022/10/05 02:59:56;;;;;;;14.20;12.25;;;;;;;-146.58;100.00;69501.63;4994852;28;20030;-60
2022/10/05 03:02:39;;;;;;;15.55;11.57;;;;;;;-146.58;100.00;69501.63;4992528;28;20057;-60
2022/10/05 03:05:16;;;;;;;14.65;13.13;;;;;;;-146.58;100.00;69501.63;4994556;28;20497;-60
2022/10/05 03:08:08;;;;;;;20.95;13.45;;;;;;;-146.58;100.00;69501.63;4993056;28;20043;-60
2022/10/05 03:10:52;;;;;;;27.23;13.35;;;;;;;-146.58;100.00;69501.63;4994066;28;20033;-59
2022/10/05 03:13:33;;;;;;;13.75;11.85;;;;;;;-146.58;100.00;69501.63;4993123;28;20034;-59
2022/10/05 03:16:05;;;;;;;15.88;14.20;;;;;;;-146.58;100.00;69501.63;4994360;28;20034;-59
2022/10/05 03:19:02;;;;;;;17.05;13.68;;;;;;;-146.58;100.00;69501.63;4992526;28;20042;-59
2022/10/05 03:21:49;;;;;;;25.20;13.52;;;;;;;-146.58;100.00;69501.63;4986972;28;20030;-60
2022/10/05 03:24:40;;;;;;;14.80;11.95;;;;;;;-146.58;100.00;69501.63;4992110;28;20054;-59
2022/10/05 03:27:27;;;;;;;13.88;12.40;;;;;;;-146.58;100.00;69501.63;4992724;28;20061;-60
2022/10/05 03:30:14;;;;;;;16.80;12.63;;;;;;;-146.58;100.00;69501.63;4994337;28;20500;-59
2022/10/05 03:32:51;;;;;;;15.70;13.35;;;;;;;-146.58;100.00;69501.63;4992365;28;20053;-60
2022/10/05 03:35:34;;;;;;;19.67;12.80;;;;;;;-146.58;100.00;69501.63;4994120;28;20034;-59
2022/10/05 03:38:18;;;;;;;17.50;12.65;;;;;;;-146.58;100.00;69501.63;4989686;28;20048;-60
2022/10/05 03:40:51;;;;;;;14.50;11.60;;;;;;;-146.58;100.00;69501.63;4994045;28;20030;-59
2022/10/05 03:43:31;;;;;;;18.75;12.88;;;;;;;-146.58;100.00;69501.63;4992279;28;20046;-59
2022/10/05 03:46:02;;;;;;;11.82;10.63;;;;;;;-146.58;100.00;69501.63;4993613;28;20034;-59
2022/10/05 03:48:33;;;;;;;22.23;13.52;;;;;;;-146.58;100.00;69501.63;4992415;28;20063;-59
2022/10/05 03:51:07;;;;;;;15.85;12.73;;;;;;;-146.58;100.00;69501.63;4993783;28;20366;-59
2022/10/05 03:54:02;;;;;;;20.73;11.60;;;;;;;-146.58;100.00;69501.63;4991924;28;20038;-59
2022/10/05 03:56:37;;;;;;;15.25;12.27;;;;;;;-146.58;100.00;69501.63;4991885;28;20061;-59
2022/10/05 03:59:13;;;;;;;24.40;11.80;;;;;;;-146.58;100.00;69501.63;4991834;28;20674;-59
2022/10/05 04:02:04;;;;;;;16.80;11.00;;;;;;;-146.58;100.00;69501.63;4991925;28;20133;-59
2022/10/05 04:04:33;;;;;;;16.65;11.60;;;;;;;-146.58;100.00;69501.63;4993295;28;20026;-59
2022/10/05 04:07:00;;;;;;;15.82;10.25;;;;;;;-146.58;100.00;69501.63;4991665;28;20066;-60
2022/10/05 04:09:44;;;;;;;19.48;11.57;;;;;;;-146.58;100.00;69501.63;4992658;28;20026;-59
2022/10/05 04:12:29;;;;;;;13.63;11.75;;;;;;;-146.58;100.00;69501.63;4991617;28;20510;-60
2022/10/05 04:15:01;;;;;;;20.92;13.20;;;;;;;-146.58;100.00;69501.63;4993493;28;20058;-59
2022/10/05 04:17:38;;;;;;;14.90;11.15;;;;;;;-146.58;100.00;69501.63;4991504;28;20054;-59
2022/10/05 04:20:21;;;;;;;15.05;11.90;;;;;;;-146.58;100.00;69501.63;4993332;28;20089;-58
2022/10/05 04:23:19;;;;;;;13.35;12.00;;;;;;;-146.58;100.00;69501.63;4991143;28;20038;-58
2022/10/05 04:25:50;;;;;;;15.77;12.77;;;;;;;-146.58;100.00;69501.63;4970372;28;20117;-58
2022/10/05 04:28:25;;;;;;;18.65;13.20;;;;;;;-146.58;100.00;69501.63;4991546;28;20124;-58
2022/10/05 04:30:52;;;;;;;14.80;10.75;;;;;;;-146.58;100.00;69501.63;4992889;28;20026;-59
2022/10/05 04:33:19;;;;;;;14.82;11.43;;;;;;;-146.58;100.00;69501.63;4991350;28;20042;-61
2022/10/05 04:36:06;;;;;;;14.88;10.50;;;;;;;-146.58;100.00;69501.63;4993053;28;20160;-60
2022/10/05 04:38:52;;;;;;;17.70;11.90;;;;;;;-146.58;100.00;69501.63;4990751;28;20050;-61
2022/10/05 04:41:27;;;;;;;13.30;11.32;;;;;;;-146.58;100.00;69501.63;4992369;28;20050;-59
2022/10/05 04:44:12;;;;;;;20.30;12.02;;;;;;;-146.58;100.00;69501.63;4991497;28;20096;-59
2022/10/05 04:47:20;;;;;;;18.10;11.63;;;;;;;-146.58;100.00;69501.63;4990819;28;20033;-59
2022/10/05 04:49:55;;;;;;;;;;;;;;;-146.58;100.00;69501.63;4993192;28;20041;-59
2022/10/05 04:52:30;;;;;;;15.98;10.35;;;;;;;-146.58;100.00;69501.63;4990616;28;19914;-58
2022/10/05 04:55:41;;;;;;;12.57;10.68;;;;;;;-146.58;100.00;69501.63;4992323;28;20097;-58
2022/10/05 04:58:26;;;;;;;19.98;13.10;;;;;;;-146.58;100.00;69501.63;4978209;28;20054;-59
2022/10/05 05:01:01;;;;;;;16.80;12.20;;;;;;;-146.58;100.00;69501.63;4992145;28;20238;-59
2022/10/05 05:04:01;;;;;;;17.35;11.90;;;;;;;-146.58;100.00;69501.63;4990621;28;20149;-59
2022/10/05 05:06:50;;;;;;;17.05;12.75;;;;;;;-146.58;100.00;69501.63;4965340;28;20041;-59
2022/10/05 05:09:26;;;;;;;;;;;;;;;-146.58;100.00;69501.63;4976666;28;20042;-59
2022/10/05 05:12:26;;;;;;;13.52;11.90;;;;;;;-146.58;100.00;69501.63;4990749;28;19913;-59
2022/10/05 05:15:15;;;;;;;22.50;11.90;;;;;;;-146.58;100.00;69501.63;4980898;28;20049;-60
2022/10/05 05:18:20;;;;;;;18.77;11.02;;;;;;;-146.58;100.00;69501.63;4989481;28;20057;-59
2022/10/05 05:21:04;;;;;;;16.63;12.20;;;;;;;-146.58;100.00;69501.63;4973028;28;20432;-59
2022/10/05 05:23:44;;;;;;;16.55;11.73;;;;;;;-146.58;100.00;69501.63;4989421;28;20050;-58
2022/10/05 05:26:20;;;;;;;17.95;10.95;;;;;;;-146.58;100.00;69501.63;4991642;28;20026;-59
2022/10/05 05:28:57;;;;;;;19.48;10.82;;;;;;;-146.58;100.00;69501.63;4989555;28;20170;-58
2022/10/05 05:31:48;;;;;;;16.40;12.27;;;;;;;-146.58;100.00;69501.63;4991638;28;20046;-58
2022/10/05 05:34:32;;;;;;;15.45;11.75;;;;;;;-146.58;100.00;69501.63;4989559;28;20104;-59
2022/10/05 05:37:03;;;;;;;17.70;12.02;;;;;;;-146.58;100.00;69501.63;4970736;28;20066;-57
2022/10/05 05:39:36;;;;;;;17.10;11.80;;;;;;;-146.58;100.00;69501.63;4972618;28;20077;-57
2022/10/05 05:42:26;;;;;;;19.27;13.40;;;;;;;-146.58;100.00;69501.63;4987147;28;20581;-57
2022/10/05 05:44:55;;;;;;;18.90;11.20;;;;;;;-146.58;100.00;69501.63;4990895;28;20073;-57
2022/10/05 05:47:34;;;;;;;;;;;;;;;-146.58;100.00;69501.63;4990238;28;20501;-57
2022/10/05 05:50:46;;;;;;;13.88;12.27;;;;;;;-146.58;100.00;69501.63;4991304;28;20321;-57
2022/10/05 05:53:19;;;;;;;16.25;12.30;;;;;;;-146.58;100.00;69501.63;4993457;28;20042;-57
2022/10/05 05:55:53;;;;;;;14.85;11.95;;;;;;;-146.58;100.00;69501.63;4990030;28;20126;-57
2022/10/05 05:58:24;;;;;;;19.27;13.18;;;;;;;-146.58;100.00;69501.63;4989246;28;20065;-57
2022/10/05 06:01:17;;;;;;;13.15;11.85;;;;;;;-146.58;100.00;69501.63;4992331;28;20022;-58
2022/10/05 06:03:48;;;;;;;20.35;11.05;;;;;;;-146.58;100.00;69501.63;4995317;28;20082;-58
2022/10/05 06:06:16;;;;;;;20.40;12.27;;;;;;;-146.58;100.00;69501.63;4997131;28;20040;-58
2022/10/05 06:08:59;;;;;;;16.75;12.82;;;;;;;-146.58;100.00;69501.63;4996347;28;20065;-57
2022/10/05 06:11:30;;;;;;;19.08;11.38;;;;;;;-146.58;100.00;69501.63;4997452;28;20018;-57
2022/10/05 06:14:00;;;;;;;15.55;12.02;;;;;;;-146.58;100.00;69501.63;4996437;28;20045;-58
2022/10/05 06:16:46;;;;;;;19.17;12.18;;;;;;;-146.58;100.00;69501.63;4997966;28;20022;-57
2022/10/05 06:19:15;;;;;;;14.10;12.60;;;;;;;-146.58;100.00;69501.63;4996548;28;20073;-57
2022/10/05 06:21:40;;;;;;;14.50;11.70;;;;;;;-146.58;100.00;69501.63;4993231;28;20033;-58
2022/10/05 06:24:22;;;;;;;15.32;12.27;;;;;;;-146.58;100.00;69501.63;5005914;28;20105;-58
2022/10/05 06:27:24;;;;;;;15.43;10.90;;;;;;;-146.58;100.00;69501.63;5005983;28;20113;-58
2022/10/05 06:30:11;;;;;;;12.63;10.25;;;;;;;-146.58;100.00;69501.63;4993779;28;20109;-58
2022/10/05 06:32:49;;;;;;;14.23;11.57;;;;;;;-146.58;100.00;69501.63;4996292;28;20058;-58
2022/10/05 06:35:35;;;;;;;13.50;10.52;;;;;;;-146.58;100.00;69501.63;4997194;28;20425;-58
2022/10/05 06:38:31;;;;;;;12.00;10.50;;;;;;;-146.58;100.00;69501.63;4995923;28;20502;-58
2022/10/05 06:41:33;;;;;;;14.75;9.48;;;;;;;-146.58;100.00;69501.63;4997177;28;20026;-57
2022/10/05 06:44:08;;;;;;;17.63;10.93;;;;;;;-146.58;100.00;69501.63;4995916;28;20050;-58
2022/10/05 06:46:52;;;;;;;9.07;8.18;;;;;;;-146.58;100.00;69501.63;4995742;28;20053;-55
2022/10/05 06:49:30;;;;;;;18.58;9.35;;;;;;;-146.58;100.00;69501.63;4997046;28;20033;-57
2022/10/05 06:52:17;;;;;;;16.73;9.55;;;;;;;-146.58;100.00;69501.63;4995344;28;20042;-57
2022/10/05 06:55:04;;;;;;;14.07;7.53;;;;;;;-146.58;100.00;69501.63;4997527;28;20125;-58
2022/10/05 06:58:02;;;;;;;8.52;7.45;;;;;;;-146.58;100.00;69501.63;4995977;28;20050;-58
2022/10/05 07:00:51;;;;;;;10.18;9.00;;;;;;;-146.58;100.00;69501.63;4996496;28;20095;-58
2022/10/05 07:03:44;;;;;;;10.02;8.73;;;;;;;-146.58;100.00;69501.63;4995404;28;20420;-58
2022/10/05 07:06:24;;;;;;;10.55;8.00;;;;;;;-146.58;100.00;69501.63;4997101;28;20045;-58
2022/10/05 07:09:27;;;;;;;8.75;7.53;;;;;;;-146.58;100.00;69501.63;4995962;28;20197;-58
2022/10/05 07:11:58;;;;;;;10.55;7.65;;;;;;;-146.58;100.00;69501.63;4996238;28;20030;-58
2022/10/05 07:14:45;;;;;;;8.43;6.90;;;;;;;-146.58;100.00;69501.63;4994121;28;20038;-58
2022/10/05 07:17:43;;;;;;;10.57;7.53;;;;;;;-146.58;100.00;69501.63;4992771;28;20457;-58
2022/10/05 07:20:08;;;;;;;10.60;8.30;;;;;;;-146.58;100.00;69501.63;4974775;28;20113;-58
2022/10/05 07:22:36;;;;;;;10.43;7.35;;;;;;;-146.58;100.00;69501.63;4973805;28;20129;-58
2022/10/05 07:25:30;;;;;;;14.82;7.55;;;;;;;-146.58;100.00;69501.63;4988226;28;20390;-58
2022/10/05 07:28:04;;;;;;;8.43;7.57;;;;;;;-146.58;100.00;69501.63;4992354;28;20502;-58
2022/10/05 07:30:39;;;;;;;8.75;6.55;;;;;;;-146.58;100.00;69501.63;4993948;28;20149;-58
2022/10/05 07:33:22;;;;;;;10.93;7.30;;;;;;;-146.58;100.00;69501.63;4992612;28;20514;-58
2022/10/05 07:39:12;;;;;;;9.23;7.55;;;;;;;-146.58;100.00;69501.63;4990142;28;20513;-58
2022/10/05 07:41:46;;;;;;;8.48;6.03;;;;;;;-146.58;100.00;69501.63;4992580;28;20038;-57
2022/10/05 07:44:20;;;;;;;9.90;7.00;;;;;;;-146.58;100.00;69501.63;4993561;28;20436;-58
2022/10/05 07:47:10;;;;;;;7.22;6.30;;;;;;;-146.58;100.00;69501.63;4992355;28;20041;-58
2022/10/05 07:49:58;;;;;;;8.18;6.70;;;;;;;-146.58;100.00;69501.63;4993690;28;20032;-58
2022/10/05 07:52:32;;;;;;;7.57;6.70;;;;;;;-146.58;100.00;69501.63;4992214;28;20525;-58
2022/10/05 07:55:11;;;;;;;8.05;6.10;;;;;;;-146.58;100.00;69501.63;4993249;28;20022;-58
2022/10/05 07:57:59;;;;;;;13.70;6.18;;;;;;;-146.58;100.00;69501.63;4991979;28;20506;-58
2022/10/05 08:00:42;;;;;;;11.53;6.43;;;;;;;-146.58;100.00;69501.63;4993179;28;20021;-58
2022/10/05 08:03:18;;;;;;;10.05;5.60;;;;;;;-146.58;100.00;69501.63;4983076;28;20473;-58
2022/10/05 08:05:45;;;;;;;10.10;6.13;;;;;;;-146.58;100.00;69501.63;4993150;28;20026;-58
2022/10/05 08:08:31;;;;;;;14.97;5.33;;;;;;;-146.58;100.00;69501.63;4991784;28;20038;-58
2022/10/05 08:11:23;;;;;;;6.03;5.32;;;;;;;-146.58;100.00;69501.63;4993555;28;20457;-58
2022/10/05 08:14:15;;;;;;;11.95;6.57;;;;;;;-146.58;100.00;69501.63;4991504;28;20034;-58
2022/10/05 08:16:42;;;;;;;9.43;7.10;;;;;;;-146.58;100.00;69501.63;4991944;28;20505;-58
2022/10/05 08:19:18;;;;;;;13.73;5.78;;;;;;;-146.58;100.00;69501.63;4993176;28;20022;-57
2022/10/05 08:21:54;;;;;;;5.80;5.20;;;;;;;-146.58;100.00;69501.63;4991776;28;20023;-58
2022/10/05 08:24:42;;;;;;;7.18;5.75;;;;;;;-146.58;100.00;69501.63;4992327;28;20037;-58
2022/10/05 08:27:22;;;;;;;6.72;6.00;;;;;;;-146.58;100.00;69501.63;4990887;28;20044;-58
2022/10/05 08:30:01;;;;;;;6.63;5.72;;;;;;;-146.58;100.00;69501.63;4993153;28;20034;-57
2022/10/05 08:32:49;;;;;;;5.65;5.15;;;;;;;-146.58;100.00;69501.63;4991461;28;20061;-58
2022/10/05 08:35:23;;;;;;;6.47;5.83;;;;;;;-146.58;100.00;69501.63;4992650;28;20026;-58
2022/10/05 08:37:49;;;;;;;6.32;5.72;;;;;;;-146.58;100.00;69501.63;4988611;28;20688;-58
2022/10/05 08:40:17;;;;;;;7.15;5.90;;;;;;;-146.58;100.00;69501.63;4990766;28;20027;-57
2022/10/05 08:43:04;;;;;;;15.15;6.38;;;;;;;-146.58;100.00;69501.63;4981991;28;20511;-57
2022/10/05 08:45:45;;;;;;;7.45;5.82;;;;;;;-146.58;100.00;69501.63;4991105;28;20030;-57
2022/10/05 08:48:17;;;;;;;7.63;5.40;;;;;;;-146.58;100.00;69501.63;4990177;28;20108;-57
2022/10/05 08:51:10;;;;;;;6.20;5.40;;;;;;;-146.58;100.00;69501.63;4991766;28;20076;-57
2022/10/05 08:54:04;;;;;;;8.05;5.07;;;;;;;-146.58;100.00;69501.63;4991161;28;20559;-57
2022/10/05 08:56:41;;;;;;;8.35;5.45;;;;;;;-146.58;100.00;69501.63;4991696;28;20053;-57
2022/10/05 08:59:13;;;;;;;6.05;4.95;;;;;;;-146.58;100.00;69501.63;4990723;28;20057;-57
2022/10/05 09:02:14;;;;;;;6.60;5.28;;;;;;;-146.58;100.00;69501.63;4989859;28;20049;-57
2022/10/05 09:04:47;;;;;;;8.10;5.32;;;;;;;-146.58;100.00;69501.63;4980191;28;20026;-57
2022/10/05 09:07:54;;;;;;;7.90;5.70;;;;;;;-146.58;100.00;69501.63;4990033;28;20041;-57
2022/10/05 09:10:30;;;;;;;6.97;5.07;;;;;;;-146.58;100.00;69501.63;4984185;28;20038;-57
2022/10/05 09:13:10;;;;;;;8.23;6.18;;;;;;;-146.58;100.00;69501.63;4990010;28;20673;-57
2022/10/05 09:15:57;;;;;;;8.55;5.75;;;;;;;16.22;100.00;164806.69;4991746;28;20106;-57
2022/10/05 09:19:05;;;;;;;8.90;5.65;;;;;;;16.22;100.00;164806.69;4990463;28;20042;-57
2022/10/05 09:22:10;;;;;;;5.82;4.85;;;;;;;16.33;100.00;164837.84;4992394;28;20022;-57
2022/10/05 09:24:56;;;;;;;12.38;6.15;;;;;;;16.25;100.00;164814.81;4990383;28;20042;-64
2022/10/05 09:27:45;;;;;;;5.50;4.18;;;;;;;16.41;100.00;164856.78;4989368;28;20047;-57
2022/10/05 09:30:47;;;;;;;9.55;6.15;;;;;;;16.77;100.00;164953.00;4990538;28;20045;-57
2022/10/05 09:33:24;;;;;;;9.07;5.05;;;;;;;17.11;100.00;165042.44;4990361;28;20051;-57
2022/10/05 09:36:26;;;;;;;8.35;5.70;;;;;;;16.95;100.00;165000.47;4991290;28;20026;-57
2022/10/05 09:39:08;;;;;;;8.70;4.95;;;;;;;16.87;100.00;164977.34;4990062;28;20038;-57
2022/10/05 09:42:08;;;;;;;6.93;4.97;;;;;;;16.76;100.00;164950.28;4991274;28;20533;-57
2022/10/05 09:44:42;;;;;;;5.43;4.47;;;;;;;16.77;100.00;164953.00;4989858;28;20480;-57
2022/10/05 09:47:32;;;;;;;12.82;5.95;;;;;;;16.76;100.00;164950.28;4990420;28;20034;-57
2022/10/05 09:50:30;;;;;;;5.43;4.78;;;;;;;16.91;100.00;164989.53;4990925;28;20076;-57
2022/10/05 09:53:26;;;;;;;5.82;4.85;;;;;;;17.07;100.00;165031.63;4990147;28;20493;-57
2022/10/05 09:56:04;;;;;;;8.23;5.65;;;;;;;16.98;100.00;165007.22;4990984;28;20029;-57
2022/10/05 09:59:12;;;;;;;8.90;5.32;;;;;;;17.02;100.00;165018.03;4989340;28;20049;-57
2022/10/05 10:02:16;;;;;;;10.27;5.10;;;;;;;17.33;100.00;165099.34;4989490;28;20050;-57
2022/10/05 10:05:00;;;;;;;6.53;4.68;;;;;;;17.44;100.00;165129.19;4989930;28;20379;-58
2022/10/05 10:07:50;;;;;;;6.60;5.05;;;;;;;17.52;100.00;165148.16;4990053;28;20048;-57
2022/10/05 10:10:34;;;;;;;4.68;4.25;;;;;;;17.60;100.00;165169.84;4990676;28;20026;-57
2022/10/05 10:13:41;;;;;;;6.50;5.00;;;;;;;17.61;100.00;165172.53;4989603;28;20457;-57
2022/10/05 10:16:12;;;;;;;12.45;6.10;;;;;;;17.66;100.00;165186.13;4963428;28;20043;-57
2022/10/05 10:18:46;;;;;;;10.13;4.82;;;;;;;17.88;100.00;165243.03;4989386;28;20047;-57
2022/10/05 10:22:02;;;;;;;12.27;4.82;;;;;;;18.12;100.00;165306.81;4991383;28;20038;-57
2022/10/05 10:24:42;;;;;;;5.55;5.05;;;;;;;18.22;100.00;165332.56;4935240;28;20044;-57
2022/10/05 10:27:20;;;;;;;5.15;3.72;;;;;;;18.19;100.00;165325.78;4988357;28;20049;-57
2022/10/05 10:30:11;;;;;;;6.18;4.38;;;;;;;18.21;100.00;165329.84;4991096;28;20038;-57
2022/10/05 10:33:10;;;;;;;6.40;3.85;;;;;;;18.33;100.00;165362.41;4988992;28;20050;-57
2022/10/05 10:36:11;;;;;;;6.88;3.88;;;;;;;18.41;100.00;165381.38;4991514;28;20054;-57
2022/10/05 10:39:15;;;;;;;6.40;3.95;;;;;;;18.44;100.00;165389.50;4989595;28;20410;-57
2022/10/05 10:42:23;;;;;;;5.72;5.22;;;;;;;18.46;100.00;165394.94;4959075;28;20116;-56
2022/10/05 10:44:52;;;;;;;8.82;5.22;;;;;;;18.59;100.00;165430.19;4977672;28;20026;-56
2022/10/05 10:47:29;;;;;;;10.55;5.30;;;;;;;18.75;100.00;165472.25;4989975;28;20042;-57
2022/10/05 10:50:32;;;;;;;7.32;4.68;;;;;;;18.86;100.00;165500.72;4995431;28;20417;-57
2022/10/05 10:53:23;;;;;;;4.85;4.22;;;;;;;18.74;100.00;165468.16;4982963;28;20100;-57
2022/10/05 10:56:03;;;;;;;5.65;4.65;;;;;;;18.82;100.00;165489.84;4994774;28;20026;-57
2022/10/05 10:58:56;;;;;;;6.72;3.92;;;;;;;19.02;100.00;165544.16;4993211;28;20054;-57
2022/10/05 11:01:56;;;;;;;7.57;3.40;;;;;;;19.14;100.00;165575.34;4993726;28;20108;-57
2022/10/05 11:05:00;;;;;;;4.28;3.88;;;;;;;19.32;100.00;165622.84;4971905;28;20074;-57
2022/10/05 11:07:28;;;;;;;8.82;4.38;;;;;;;19.15;100.00;165576.75;4992753;28;20042;-57
2022/10/05 11:09:59;;;;;;;3.47;3.17;;;;;;;18.93;100.00;165518.38;4993834;28;20065;-56
2022/10/05 11:12:49;;;;;;;4.82;3.70;;;;;;;19.11;100.00;165567.25;4991681;28;20066;-56
2022/10/05 11:15:46;;;;;;;19.15;5.25;;;;;;;19.10;100.00;165564.53;4994597;28;20064;-57
2022/10/05 11:18:35;;;;;;;4.57;4.10;;;;;;;19.10;100.00;165564.53;4992657;28;20093;-57
2022/10/05 11:21:21;;;;;;;4.82;2.95;;;;;;;19.10;100.00;165564.53;4994100;28;20436;-57
2022/10/05 11:24:37;;;;;;;5.72;3.55;;;;;;;19.15;100.00;165576.75;4992729;28;20119;-56
2022/10/05 11:27:45;;;;;;;4.85;3.60;;;;;;;19.14;100.00;165575.34;4973537;28;20524;-57
2022/10/05 11:30:20;;;;;;;4.53;3.75;;;;;;;19.02;100.00;165544.16;4987435;28;20029;-57
2022/10/05 11:33:05;;;;;;;4.88;4.30;;;;;;;19.03;100.00;165546.88;4995265;28;20068;-57
2022/10/05 11:35:42;;;;;;;9.93;3.95;;;;;;;18.85;100.00;165498.00;4997735;28;20069;-57
2022/10/05 11:38:39;;;;;;;4.30;3.90;;;;;;;18.77;100.00;165476.31;4992020;28;20042;-57
2022/10/05 11:41:35;;;;;;;6.20;4.82;;;;;;;18.69;100.00;165457.31;4977301;28;20057;-57
2022/10/05 11:44:29;;;;;;;4.18;3.15;;;;;;;18.79;100.00;165481.75;4992391;28;20100;-57
2022/10/05 11:47:12;;;;;;;7.88;4.50;;;;;;;18.64;100.00;165443.78;4992378;28;20477;-56
2022/10/05 11:49:58;;;;;;;6.20;4.35;;;;;;;18.70;100.00;165460.03;4992480;28;20019;-57
2022/10/05 11:52:37;;;;;;;5.03;3.28;;;;;;;18.68;100.00;165454.59;4991880;28;20050;-56
2022/10/05 11:55:58;;;;;;;5.20;3.22;;;;;;;18.93;100.00;165519.78;4993496;28;20037;-57
2022/10/05 11:58:39;;;;;;;5.60;3.92;;;;;;;18.92;100.00;165515.66;4968313;28;20054;-62
2022/10/05 12:01:15;;;;;;;4.28;2.97;;;;;;;18.86;100.00;165502.06;4992131;28;20104;-57
2022/10/05 12:03:57;;;;;;;7.53;3.55;;;;;;;18.89;100.00;165508.84;4992211;28;20133;-57
2022/10/05 12:06:41;;;;;;;5.20;2.75;;;;;;;18.85;100.00;165498.00;4993526;28;20026;-57
2022/10/05 12:09:24;;;;;;;6.80;2.97;;;;;;;18.73;100.00;165466.81;4990588;28;20413;-57
2022/10/05 12:12:04;;;;;;;6.55;5.93;;;;;;;18.61;100.00;165435.63;4985524;28;20037;-57
2022/10/05 12:14:33;;;;;;;10.88;3.90;;;;;;;18.66;100.00;165449.16;4993068;28;20031;-58
2022/10/05 12:17:11;;;;;;;7.32;3.55;;;;;;;18.68;100.00;165454.59;4991210;28;20049;-58
2022/10/05 12:19:47;;;;;;;4.65;3.58;;;;;;;18.69;100.00;165456.00;4992872;28;20026;-57